Time;durP1;ratioP1;P1;durP2;ratioP2;P2;SDS_P1;SDS_P2;PMS_P1;PMS_P2;Temp;Humidity;BMP_temperature;BMP_pressure;BME280_temperature;BME280_humidity;BME280_pressure;Samples;Min_cycle;Max_cycle;Signal;HPM_P1;HPM_P2
2023/04/09 00:01:43;;;;;;;100.72;53.80;;;;;;;8.37;100.00;102766.31;4951157;28;20055;-77
2023/04/09 00:04:10;;;;;;;98.10;59.47;;;;;;;8.36;100.00;102769.78;4950678;29;20050;-77
2023/04/09 00:06:38;;;;;;;100.25;56.78;;;;;;;8.36;100.00;102768.88;4932858;28;20047;-77
2023/04/09 00:09:05;;;;;;;100.28;58.03;;;;;;;8.35;100.00;102769.69;4949706;29;20051;-77
2023/04/09 00:11:32;;;;;;;102.85;56.72;;;;;;;8.33;100.00;102774.88;4903507;28;20058;-77
2023/04/09 00:14:00;;;;;;;93.72;53.97;;;;;;;8.34;100.00;102770.56;4945050;28;20057;-77
2023/04/09 00:16:29;;;;;;;95.97;53.40;;;;;;;8.33;100.00;102774.00;4934104;28;20044;-77
2023/04/09 00:18:57;;;;;;;96.63;55.53;;;;;;;8.32;100.00;102772.22;4981937;28;20047;-77
2023/04/09 00:21:25;;;;;;;89.97;52.03;;;;;;;8.33;100.00;102774.00;4961696;28;20047;-77
2023/04/09 00:23:53;;;;;;;91.53;51.90;;;;;;;8.31;100.00;102773.03;4963602;28;20070;-77
2023/04/09 00:26:21;;;;;;;96.25;53.00;;;;;;;8.30;100.00;102760.72;4918789;28;20051;-77
2023/04/09 00:28:48;;;;;;;90.47;51.75;;;;;;;8.30;100.00;102766.88;4948679;28;20047;-77
2023/04/09 00:31:16;;;;;;;84.57;46.72;;;;;;;8.28;100.00;102763.31;4951380;28;20418;-76
2023/04/09 00:33:46;;;;;;;71.63;44.55;;;;;;;8.27;100.00;102757.97;4957683;28;20043;-77
2023/04/09 00:36:14;;;;;;;75.72;45.20;;;;;;;8.25;100.00;102755.28;4981903;28;20047;-77
2023/04/09 00:38:45;;;;;;;60.80;37.30;;;;;;;8.24;100.00;102743.00;4966000;28;20046;-77
2023/04/09 00:41:12;;;;;;;66.10;37.90;;;;;;;8.23;100.00;102746.44;4920120;28;20050;-77
2023/04/09 00:43:40;;;;;;;64.68;37.22;;;;;;;8.24;100.00;102747.31;4949019;28;20565;-77
2023/04/09 00:46:08;;;;;;;62.28;35.88;;;;;;;8.23;100.00;102748.19;4958761;28;20117;-77
2023/04/09 00:48:35;;;;;;;75.43;38.80;;;;;;;8.22;100.00;102739.38;4943056;28;20050;-77
2023/04/09 00:51:03;;;;;;;62.88;35.60;;;;;;;8.24;100.00;102742.06;4965771;28;20853;-77
2023/04/09 00:53:30;;;;;;;63.33;36.85;;;;;;;8.24;100.00;102739.44;4972857;28;20062;-76
2023/04/09 00:55:58;;;;;;;62.05;37.10;;;;;;;8.24;100.00;102734.19;4958635;28;20461;-77
2023/04/09 00:58:25;;;;;;;55.42;35.47;;;;;;;8.26;100.00;102740.41;4908837;28;20051;-76
2023/04/09 01:00:54;;;;;;;61.75;38.13;;;;;;;8.24;100.00;102735.13;4933908;28;20052;-76
2023/04/09 01:03:22;;;;;;;60.75;36.92;;;;;;;8.24;100.00;102747.31;4937104;28;20055;-76
2023/04/09 01:06:25;;;;;;;60.92;37.38;;;;;;;8.23;100.00;102735.94;4945244;28;20058;-77
2023/04/09 01:09:13;;;;;;;61.38;38.35;;;;;;;8.23;100.00;102740.28;4905371;29;20147;-77
2023/04/09 01:11:41;;;;;;;61.40;36.53;;;;;;;8.22;100.00;102733.22;4897912;28;20078;-77
2023/04/09 01:14:31;;;;;;;65.07;38.40;;;;;;;8.23;100.00;102737.66;4940539;29;20423;-77
2023/04/09 01:17:11;;;;;;;61.63;35.85;;;;;;;8.21;100.00;102737.59;4970866;28;20051;-77
2023/04/09 01:20:05;;;;;;;60.20;35.40;;;;;;;8.20;100.00;102739.34;4946414;28;20437;-77
2023/04/09 01:22:52;;;;;;;63.50;37.22;;;;;;;8.19;100.00;102734.00;4961107;28;20051;-77
2023/04/09 01:25:48;;;;;;;59.17;36.40;;;;;;;8.19;100.00;102740.16;4940657;29;20054;-77
2023/04/09 01:28:24;;;;;;;65.70;36.85;;;;;;;8.17;100.00;102726.06;4899494;28;20055;-77
2023/04/09 01:30:59;;;;;;;65.25;39.13;;;;;;;8.17;100.00;102733.03;4951899;28;20043;-77
2023/04/09 01:33:30;;;;;;;58.17;36.35;;;;;;;8.17;100.00;102726.06;4934609;28;20051;-77
2023/04/09 01:36:05;;;;;;;72.47;41.10;;;;;;;8.16;100.00;102723.34;4971115;28;20054;-76
2023/04/09 01:38:38;;;;;;;76.15;41.80;;;;;;;8.16;100.00;102719.00;4946103;28;20051;-77
2023/04/09 01:41:11;;;;;;;65.53;39.67;;;;;;;8.16;100.00;102718.09;4976308;28;20059;-77
2023/04/09 01:43:41;;;;;;;63.63;38.50;;;;;;;8.16;100.00;102718.09;4905456;28;20050;-77
2023/04/09 01:46:09;;;;;;;69.47;36.70;;;;;;;8.14;100.00;102715.41;4947004;28;20070;-76
2023/04/09 01:48:38;;;;;;;53.85;34.45;;;;;;;8.13;100.00;102718.00;4952225;28;20046;-76
2023/04/09 01:51:05;;;;;;;58.08;32.83;;;;;;;8.10;100.00;102718.75;4965163;28;20126;-77
2023/04/09 01:53:32;;;;;;;53.55;33.72;;;;;;;8.10;100.00;102718.75;4950443;28;20058;-77
2023/04/09 01:56:00;;;;;;;54.83;32.78;;;;;;;8.10;100.00;102723.09;4959921;28;20054;-77
2023/04/09 01:58:28;;;;;;;54.70;33.80;;;;;;;8.10;100.00;102718.75;4931634;28;20043;-76
2023/04/09 02:01:04;;;;;;;52.78;34.17;;;;;;;8.10;100.00;102715.22;4963350;28;20055;-77
2023/04/09 02:03:39;;;;;;;60.53;33.83;;;;;;;8.11;100.00;102722.25;4930570;28;20257;-77
2023/04/09 02:06:27;;;;;;;56.88;33.28;;;;;;;8.11;100.00;102720.56;4945332;29;20059;-76
2023/04/09 02:08:59;;;;;;;50.92;31.17;;;;;;;8.12;100.00;102724.94;4944857;28;20054;-77
2023/04/09 02:11:29;;;;;;;49.55;31.88;;;;;;;8.12;100.00;102721.44;4947968;28;20616;-77
2023/04/09 02:13:58;;;;;;;54.03;31.05;;;;;;;8.13;100.00;102728.50;4903011;28;21911;-77
2023/04/09 02:16:26;;;;;;;55.30;32.53;;;;;;;8.13;100.00;102720.63;4963740;28;20130;-76
2023/04/09 02:18:55;;;;;;;52.67;31.35;;;;;;;8.12;100.00;102710.94;4928436;28;20901;-77
2023/04/09 02:21:23;;;;;;;49.33;33.42;;;;;;;8.12;100.00;102710.94;4947681;28;20051;-77
2023/04/09 02:23:50;;;;;;;50.40;33.33;;;;;;;8.10;100.00;102712.59;4943567;29;20438;-76
2023/04/09 02:26:17;;;;;;;50.47;32.78;;;;;;;8.07;100.00;102716.00;4946851;28;20061;-76
2023/04/09 02:28:45;;;;;;;56.80;34.55;;;;;;;8.07;100.00;102708.13;4951825;28;20047;-75
2023/04/09 02:31:12;;;;;;;49.17;32.72;;;;;;;8.06;100.00;102716.81;4905413;28;20074;-77
2023/04/09 02:33:40;;;;;;;57.30;34.25;;;;;;;8.06;100.00;102714.19;4967430;28;20418;-77
2023/04/09 02:36:11;;;;;;;53.38;33.83;;;;;;;8.08;100.00;102720.41;4957706;28;20524;-77
2023/04/09 02:38:41;;;;;;;52.92;32.28;;;;;;;8.08;100.00;102720.41;4965739;28;20512;-77
2023/04/09 02:41:08;;;;;;;52.50;34.60;;;;;;;8.09;100.00;102716.97;4967644;28;20051;-77
2023/04/09 02:43:36;;;;;;;54.78;33.10;;;;;;;8.08;100.00;102704.66;4960883;28;20128;-77
2023/04/09 02:46:04;;;;;;;51.88;34.05;;;;;;;8.09;100.00;102708.16;4907106;28;20434;-77
2023/04/09 02:48:33;;;;;;;55.87;33.03;;;;;;;8.08;100.00;102702.03;4956936;28;20062;-77
2023/04/09 02:51:04;;;;;;;52.92;33.78;;;;;;;8.09;100.00;102710.78;4942614;28;20291;-77
2023/04/09 02:53:31;;;;;;;50.92;33.30;;;;;;;8.06;100.00;102695.81;4962060;28;20438;-77
2023/04/09 02:55:59;;;;;;;54.97;35.65;;;;;;;8.06;100.00;102703.69;4945600;28;20051;-77
2023/04/09 02:58:26;;;;;;;56.97;34.20;;;;;;;8.05;100.00;102698.38;4947981;28;20047;-77
2023/04/09 03:00:53;;;;;;;54.10;34.42;;;;;;;8.04;100.00;102693.97;4919630;28;20047;-77
2023/04/09 03:03:21;;;;;;;57.90;34.38;;;;;;;8.03;100.00;102685.16;4977233;28;20051;-76
2023/04/09 03:05:48;;;;;;;58.25;35.63;;;;;;;8.03;100.00;102694.78;4939074;28;20063;-77
2023/04/09 03:08:16;;;;;;;55.15;34.88;;;;;;;8.03;100.00;102694.78;4960951;28;20501;-75
2023/04/09 03:10:43;;;;;;;51.75;33.92;;;;;;;8.02;100.00;102691.25;4966194;28;20051;-77
2023/04/09 03:13:10;;;;;;;56.58;34.80;;;;;;;8.03;100.00;102684.28;4965630;28;20496;-77
2023/04/09 03:15:38;;;;;;;60.88;37.03;;;;;;;8.04;100.00;102691.34;4939725;28;20078;-77
2023/04/09 03:18:05;;;;;;;58.45;35.17;;;;;;;8.02;100.00;102683.38;4936703;28;20401;-77
2023/04/09 03:20:37;;;;;;;52.15;33.08;;;;;;;8.01;100.00;102678.94;4953961;28;20043;-78
2023/04/09 03:23:04;;;;;;;54.72;35.50;;;;;;;8.01;100.00;102686.84;4921519;29;20066;-77
2023/04/09 03:25:37;;;;;;;56.47;34.65;;;;;;;7.98;100.00;102669.22;4956916;28;20522;-75
2023/04/09 03:28:11;;;;;;;54.85;34.58;;;;;;;7.98;100.00;102671.84;4945411;28;20051;-77
2023/04/09 03:30:45;;;;;;;57.38;34.47;;;;;;;7.99;100.00;102672.75;4905919;28;20062;-77
2023/04/09 03:33:13;;;;;;;56.17;34.13;;;;;;;7.97;100.00;102669.16;4963824;28;20525;-77
2023/04/09 03:35:49;;;;;;;57.97;36.33;;;;;;;7.96;100.00;102668.28;4925594;28;20057;-77
2023/04/09 03:38:23;;;;;;;60.33;36.97;;;;;;;7.95;100.00;102665.56;4968591;28;20051;-77
2023/04/09 03:40:51;;;;;;;59.50;36.40;;;;;;;7.93;100.00;102670.75;4962266;28;20042;-77
2023/04/09 03:43:19;;;;;;;59.45;36.22;;;;;;;7.91;100.00;102672.41;4961836;28;20078;-77
2023/04/09 03:45:50;;;;;;;57.42;35.55;;;;;;;7.89;100.00;102666.19;4939475;28;20073;-76
2023/04/09 03:48:22;;;;;;;62.88;36.53;;;;;;;7.88;100.00;102666.13;4907539;28;20051;-77
2023/04/09 03:50:52;;;;;;;60.22;35.53;;;;;;;7.86;100.00;102673.94;4947155;28;20052;-77
2023/04/09 03:53:28;;;;;;;57.20;35.00;;;;;;;7.85;100.00;102668.66;4963117;28;20059;-77
2023/04/09 03:56:01;;;;;;;60.58;35.17;;;;;;;7.86;100.00;102675.66;4939300;28;20048;-77
2023/04/09 03:58:30;;;;;;;59.65;36.75;;;;;;;7.82;100.00;102672.00;4965943;28;20057;-76
2023/04/09 04:00:59;;;;;;;61.13;36.80;;;;;;;7.81;100.00;102679.00;4963404;28;20050;-77
2023/04/09 04:03:37;;;;;;;60.22;37.15;;;;;;;7.80;100.00;102668.44;4869324;28;20058;-76
2023/04/09 04:06:16;;;;;;;57.58;36.78;;;;;;;7.79;100.00;102667.53;4937917;28;20058;-77
2023/04/09 04:09:10;;;;;;;63.67;38.10;;;;;;;7.78;100.00;102668.34;4937967;28;20062;-76
2023/04/09 04:11:50;;;;;;;64.40;39.90;;;;;;;7.75;100.00;102670.88;4950091;28;20398;-77
2023/04/09 04:14:20;;;;;;;66.20;38.00;;;;;;;7.73;100.00;102669.91;4955337;28;20062;-77
2023/04/09 04:16:53;;;;;;;61.08;36.63;;;;;;;7.71;100.00;102658.44;4949006;28;20055;-76
2023/04/09 04:19:24;;;;;;;62.35;37.95;;;;;;;7.70;100.00;102669.75;4901460;28;20055;-76
2023/04/09 04:21:52;;;;;;;68.68;42.63;;;;;;;7.68;100.00;102662.66;4950655;28;20055;-77
2023/04/09 04:24:19;;;;;;;65.05;39.67;;;;;;;7.66;100.00;102662.59;4916238;28;20431;-77
2023/04/09 04:26:47;;;;;;;64.07;39.15;;;;;;;7.63;100.00;102667.69;4944873;28;20063;-77
2023/04/09 04:29:18;;;;;;;65.40;39.85;;;;;;;7.63;100.00;102664.16;4946274;28;20125;-77
2023/04/09 04:31:57;;;;;;;67.82;40.15;;;;;;;7.60;100.00;102659.69;4948989;28;20047;-77
2023/04/09 04:34:30;;;;;;;65.22;40.05;;;;;;;7.58;100.00;102669.19;4898048;28;20777;-77
2023/04/09 04:37:07;;;;;;;72.65;41.53;;;;;;;7.57;100.00;102670.03;4965209;28;20047;-76
2023/04/09 04:39:34;;;;;;;64.43;41.30;;;;;;;7.56;100.00;102671.78;4920243;28;20043;-77
2023/04/09 04:42:07;;;;;;;71.95;41.88;;;;;;;7.55;100.00;102669.97;4962786;28;20099;-77
2023/04/09 04:44:35;;;;;;;74.82;43.28;;;;;;;7.56;100.00;102673.47;4956966;28;20051;-76
2023/04/09 04:47:11;;;;;;;72.45;43.90;;;;;;;7.56;100.00;102676.09;4974898;28;20414;-77
2023/04/09 04:49:39;;;;;;;66.25;41.33;;;;;;;7.57;100.00;102676.19;4909219;28;20140;-77
2023/04/09 04:52:07;;;;;;;74.13;42.15;;;;;;;7.57;100.00;102683.16;4931160;28;20509;-77
2023/04/09 04:54:37;;;;;;;66.35;40.75;;;;;;;7.58;100.00;102682.31;4930847;28;20660;-77
2023/04/09 04:57:05;;;;;;;79.47;45.60;;;;;;;7.57;100.00;102685.78;4961393;28;20073;-77
2023/04/09 04:59:39;;;;;;;65.38;42.53;;;;;;;7.56;100.00;102694.47;4949140;28;20047;-77
2023/04/09 05:02:09;;;;;;;66.90;41.20;;;;;;;7.56;100.00;102681.34;4966346;28;20061;-77
2023/04/09 05:04:57;;;;;;;65.50;41.60;;;;;;;7.56;100.00;102687.50;4909237;28;20449;-77
2023/04/09 05:07:32;;;;;;;63.08;40.35;;;;;;;7.57;100.00;102678.81;4959381;28;20085;-77
2023/04/09 05:10:00;;;;;;;67.43;43.17;;;;;;;7.58;100.00;102679.69;4939196;28;20047;-77
2023/04/09 05:12:33;;;;;;;66.00;41.50;;;;;;;7.60;100.00;102681.56;4919189;28;20046;-77
2023/04/09 05:15:01;;;;;;;68.28;41.42;;;;;;;7.62;100.00;102681.66;4939095;28;20513;-76
2023/04/09 05:17:29;;;;;;;72.60;43.20;;;;;;;7.64;100.00;102684.31;4961465;28;20077;-76
2023/04/09 05:19:57;;;;;;;70.45;43.40;;;;;;;7.64;100.00;102679.06;4966590;28;20051;-77
2023/04/09 05:22:32;;;;;;;66.72;41.47;;;;;;;7.64;100.00;102682.59;4906482;28;20035;-76
2023/04/09 05:25:00;;;;;;;73.05;44.35;;;;;;;7.66;100.00;102688.81;4941906;28;20059;-77
2023/04/09 05:27:29;;;;;;;67.32;40.90;;;;;;;7.68;100.00;102681.03;4942867;28;20078;-77
2023/04/09 05:30:00;;;;;;;68.22;43.25;;;;;;;7.70;100.00;102688.13;4965670;28;20051;-77
2023/04/09 05:32:27;;;;;;;77.70;43.65;;;;;;;7.72;100.00;102693.44;4971453;28;20059;-77
2023/04/09 05:34:55;;;;;;;65.57;42.83;;;;;;;7.73;100.00;102693.53;4964407;28;20417;-76
2023/04/09 05:37:25;;;;;;;77.70;43.67;;;;;;;7.74;100.00;102690.03;4903477;28;20086;-76
2023/04/09 05:39:53;;;;;;;74.13;43.55;;;;;;;7.75;100.00;102689.22;4940421;28;20047;-77
2023/04/09 05:42:21;;;;;;;72.43;43.38;;;;;;;7.75;100.00;102683.97;4961315;28;20043;-76
2023/04/09 05:45:05;;;;;;;74.25;43.67;;;;;;;7.76;100.00;102685.75;4971041;28;20058;-77
2023/04/09 05:47:33;;;;;;;66.97;42.53;;;;;;;7.79;100.00;102683.28;4957147;28;20135;-77
2023/04/09 05:50:15;;;;;;;72.28;42.22;;;;;;;7.83;100.00;102683.44;4951984;28;20051;-76
2023/04/09 05:52:43;;;;;;;70.18;40.92;;;;;;;7.86;100.00;102680.91;4945857;28;20935;-77
2023/04/09 05:55:13;;;;;;;68.03;41.83;;;;;;;7.88;100.00;102685.44;4941963;28;20043;-76
2023/04/09 05:57:47;;;;;;;67.30;43.97;;;;;;;7.89;100.00;102679.31;4947042;28;20908;-77
2023/04/09 06:00:17;;;;;;;74.85;45.05;;;;;;;7.91;100.00;102688.16;4945746;28;20405;-77
2023/04/09 06:02:45;;;;;;;70.55;42.83;;;;;;;7.88;100.00;102685.44;4962340;28;20043;-76
2023/04/09 06:05:16;;;;;;;70.20;44.45;;;;;;;7.90;100.00;102682.84;4964970;28;20062;-77
2023/04/09 06:07:43;;;;;;;74.60;46.83;;;;;;;7.92;100.00;102679.47;4909356;28;20054;-77
2023/04/09 06:10:10;;;;;;;77.88;46.40;;;;;;;7.93;100.00;102683.88;4933998;28;20047;-77
2023/04/09 06:12:38;;;;;;;82.75;45.50;;;;;;;7.94;100.00;102679.50;4933613;28;20545;-76
2023/04/09 06:15:06;;;;;;;73.53;46.40;;;;;;;7.96;100.00;102677.88;4936956;28;20065;-77
2023/04/09 06:17:33;;;;;;;72.95;44.55;;;;;;;7.96;100.00;102677.88;4934674;29;20491;-76
2023/04/09 06:20:01;;;;;;;72.80;44.97;;;;;;;7.95;100.00;102676.06;4948205;28;20062;-76
2023/04/09 06:22:28;;;;;;;66.93;43.30;;;;;;;7.96;100.00;102681.41;4903042;28;20059;-76
2023/04/09 06:24:55;;;;;;;72.68;44.53;;;;;;;7.95;100.00;102681.31;4975526;28;20054;-77
2023/04/09 06:27:23;;;;;;;71.93;45.08;;;;;;;7.93;100.00;102688.25;4924214;28;20058;-75
2023/04/09 06:29:50;;;;;;;73.38;45.78;;;;;;;7.91;100.00;102698.66;4944254;28;20043;-76
2023/04/09 06:32:17;;;;;;;65.50;42.95;;;;;;;7.92;100.00;102689.97;4976321;28;20039;-76
2023/04/09 06:34:45;;;;;;;67.93;42.35;;;;;;;7.95;100.00;102692.72;4965322;28;20055;-77
2023/04/09 06:37:12;;;;;;;66.35;41.53;;;;;;;7.97;100.00;102708.53;4951002;28;20042;-77
2023/04/09 06:39:40;;;;;;;67.38;41.38;;;;;;;7.99;100.00;102699.00;4937403;28;20047;-77
2023/04/09 06:42:25;;;;;;;58.72;37.70;;;;;;;8.02;100.00;102703.50;4943546;28;20049;-77
2023/04/09 06:45:07;;;;;;;57.53;36.97;;;;;;;8.04;100.00;102707.97;4931190;28;20058;-77
2023/04/09 06:47:35;;;;;;;53.03;36.50;;;;;;;8.07;100.00;102707.19;4958530;28;20075;-77
2023/04/09 06:50:03;;;;;;;56.58;36.42;;;;;;;8.09;100.00;102705.53;4977385;28;20054;-77
2023/04/09 06:52:30;;;;;;;56.78;37.75;;;;;;;8.07;100.00;102697.63;4977766;28;20042;-77
2023/04/09 06:54:57;;;;;;;54.85;33.42;;;;;;;8.09;100.00;102702.91;4903021;28;20056;-77
2023/04/09 06:57:25;;;;;;;51.03;32.28;;;;;;;8.09;100.00;102706.47;4911353;29;20046;-76
2023/04/09 06:59:52;;;;;;;52.25;32.95;;;;;;;8.10;100.00;102702.97;4960462;28;20524;-77
2023/04/09 07:02:20;;;;;;;47.20;32.05;;;;;;;8.13;100.00;102697.00;4960080;28;20079;-76
2023/04/09 07:04:47;;;;;;;48.85;31.63;;;;;;;8.16;100.00;102700.59;4970233;28;20057;-76
2023/04/09 07:07:15;;;;;;;49.60;32.42;;;;;;;8.23;100.00;102706.16;4946033;28;20180;-76
2023/04/09 07:09:43;;;;;;;52.53;32.60;;;;;;;8.29;100.00;102703.78;4902979;28;20057;-76
2023/04/09 07:12:10;;;;;;;50.72;32.22;;;;;;;8.30;100.00;102709.09;4908585;28;20051;-76
2023/04/09 07:14:38;;;;;;;42.55;30.40;;;;;;;8.32;100.00;102706.53;4930306;28;20059;-77
2023/04/09 07:17:05;;;;;;;53.05;31.35;;;;;;;8.31;100.00;102708.25;4930413;28;20375;-76
2023/04/09 07:19:32;;;;;;;45.78;31.92;;;;;;;8.33;100.00;102711.84;4953480;28;20042;-77
2023/04/09 07:22:00;;;;;;;47.45;30.77;;;;;;;8.35;100.00;102710.16;4949266;28;20051;-76
2023/04/09 07:24:27;;;;;;;48.20;31.20;;;;;;;8.39;100.00;102714.75;4921255;28;20430;-76
2023/04/09 07:26:55;;;;;;;42.45;29.67;;;;;;;8.46;100.00;102712.41;4936737;28;20047;-77
2023/04/09 07:29:22;;;;;;;46.47;27.63;;;;;;;8.53;100.00;102711.81;4950131;28;20055;-76
2023/04/09 07:31:49;;;;;;;42.40;27.38;;;;;;;8.61;100.00;102712.13;4934899;28;20051;-76
2023/04/09 07:34:17;;;;;;;36.17;25.45;;;;;;;8.65;100.00;102704.44;4935010;29;20063;-76
2023/04/09 07:36:44;;;;;;;38.03;25.27;;;;;;;8.80;100.00;102703.28;4960630;28;20066;-77
2023/04/09 07:39:12;;;;;;;36.28;25.67;;;;;;;8.96;100.00;102705.69;4952152;28;20455;-76
2023/04/09 07:41:40;;;;;;;37.55;24.67;;;;;;;9.11;100.00;102702.72;4902176;28;20035;-76
2023/04/09 07:44:08;;;;;;;33.65;23.08;;;;;;;9.31;100.00;102707.03;4927966;28;20051;-76
2023/04/09 07:46:35;;;;;;;35.47;23.48;;;;;;;9.58;100.00;102711.53;4945368;28;20069;-76
2023/04/09 07:49:03;;;;;;;32.25;22.33;;;;;;;9.77;100.00;102707.84;4943604;29;20521;-76
2023/04/09 07:51:30;;;;;;;29.35;20.52;;;;;;;9.88;100.00;102711.75;4920765;28;20509;-76
2023/04/09 07:53:58;;;;;;;31.73;20.95;;;;;;;9.87;100.00;102711.72;4945594;28;20047;-76
2023/04/09 07:56:25;;;;;;;32.08;22.00;;;;;;;9.86;100.00;102717.81;4906169;28;20051;-76
2023/04/09 07:58:52;;;;;;;33.83;22.20;;;;;;;9.84;100.00;102711.59;4941803;28;20063;-76
2023/04/09 08:01:23;;;;;;;33.50;21.13;;;;;;;9.81;100.00;102717.66;4940696;28;20071;-76
2023/04/09 08:03:50;;;;;;;30.10;21.60;;;;;;;9.73;100.00;102709.50;4944990;28;20497;-77
2023/04/09 08:06:18;;;;;;;30.95;21.77;;;;;;;9.66;100.00;102715.38;4933687;28;20043;-76
2023/04/09 08:08:46;;;;;;;31.30;21.65;;;;;;;9.65;100.00;102715.31;4957475;28;20041;-76
2023/04/09 08:11:13;;;;;;;33.28;22.33;;;;;;;9.62;100.00;102715.19;4899791;28;20051;-77
2023/04/09 08:13:41;;;;;;;34.40;22.35;;;;;;;9.58;100.00;102714.16;4964423;28;20054;-77
2023/04/09 08:16:08;;;;;;;31.35;21.55;;;;;;;9.52;100.00;102719.22;4946300;29;20051;-76
2023/04/09 08:18:35;;;;;;;36.63;24.35;;;;;;;9.50;100.00;102720.88;4919723;28;20077;-77
2023/04/09 08:21:03;;;;;;;34.30;23.60;;;;;;;9.41;100.00;102724.06;4948993;28;20047;-77
2023/04/09 08:23:31;;;;;;;40.80;24.75;;;;;;;9.36;100.00;102718.63;4935927;28;20054;-76
2023/04/09 08:25:58;;;;;;;33.85;23.90;;;;;;;9.28;100.00;102713.91;4905299;28;20051;-76
2023/04/09 08:28:26;;;;;;;33.05;21.52;;;;;;;9.21;100.00;102719.78;4948014;29;20421;-76
2023/04/09 08:30:54;;;;;;;33.58;22.73;;;;;;;9.14;100.00;102719.53;4933916;28;20055;-76
2023/04/09 08:33:21;;;;;;;32.35;21.55;;;;;;;9.16;100.00;102714.34;4953292;28;20035;-76
2023/04/09 08:35:48;;;;;;;32.53;20.70;;;;;;;9.23;100.00;102718.13;4958440;28;20296;-76
2023/04/09 08:38:17;;;;;;;28.48;20.00;;;;;;;9.26;100.00;102716.50;4950541;28;20039;-76
2023/04/09 08:40:44;;;;;;;28.73;18.25;;;;;;;9.32;100.00;102716.72;4954346;28;20039;-77
2023/04/09 08:43:15;;;;;;;27.42;19.52;;;;;;;9.44;100.00;102732.09;4906679;28;20043;-76
2023/04/09 08:45:42;;;;;;;30.05;18.65;;;;;;;9.55;100.00;102733.38;4949204;28;21262;-76
2023/04/09 08:48:12;;;;;;;21.85;16.17;;;;;;;9.65;100.00;102726.72;4938840;28;20046;-77
2023/04/09 08:50:40;;;;;;;27.20;18.42;;;;;;;9.72;100.00;102707.69;4948345;28;20067;-76
2023/04/09 08:53:09;;;;;;;23.80;16.70;;;;;;;9.86;100.00;102718.69;4933419;28;20047;-76
2023/04/09 08:55:36;;;;;;;24.42;17.10;;;;;;;10.02;100.00;102712.25;4935855;28;20047;-77
2023/04/09 08:58:06;;;;;;;23.90;17.05;;;;;;;10.18;100.00;102712.78;4907584;28;20035;-76
2023/04/09 09:00:33;;;;;;;27.53;18.90;;;;;;;10.27;100.00;102713.13;4921805;28;20059;-77
2023/04/09 09:03:07;;;;;;;25.15;17.67;;;;;;;10.37;100.00;102709.97;4960775;28;20047;-77
2023/04/09 09:05:43;;;;;;;27.20;17.33;;;;;;;10.48;100.00;102711.22;4963922;28;20473;-77
2023/04/09 09:08:24;;;;;;;23.35;16.92;;;;;;;10.49;100.00;102699.84;4951275;28;20409;-77
2023/04/09 09:10:52;;;;;;;27.13;18.38;;;;;;;10.54;100.00;102698.25;4944816;28;20058;-77
2023/04/09 09:13:27;;;;;;;23.52;17.38;;;;;;;10.75;100.00;102693.63;4927203;28;20087;-77
2023/04/09 09:16:13;;;;;;;27.85;19.17;;;;;;;10.96;100.00;102696.03;4929513;28;20051;-77
2023/04/09 09:18:42;;;;;;;25.25;18.42;;;;;;;11.08;100.00;102694.69;4928782;28;20055;-77
2023/04/09 09:21:18;;;;;;;27.67;19.75;;;;;;;11.20;100.00;102698.53;4976922;28;20051;-77
2023/04/09 09:23:47;;;;;;;28.30;18.83;;;;;;;11.28;100.00;102697.03;4941180;29;20060;-77
2023/04/09 09:26:19;;;;;;;24.58;18.10;;;;;;;11.41;100.00;102690.38;4934524;29;20051;-77
2023/04/09 09:28:48;;;;;;;30.27;20.38;;;;;;;11.55;100.00;102688.09;4905375;28;20058;-77
2023/04/09 09:31:18;;;;;;;27.27;19.08;;;;;;;11.66;100.00;102689.31;4916867;28;20054;-77
2023/04/09 09:33:47;;;;;;;27.17;18.67;;;;;;;11.69;100.00;102685.00;4926605;28;20061;-77
2023/04/09 09:36:15;;;;;;;25.50;19.23;;;;;;;11.72;100.00;102686.88;4923793;29;20048;-77
2023/04/09 09:38:56;;;;;;;28.85;21.63;;;;;;;11.70;100.00;102683.25;4946994;29;20039;-78
2023/04/09 09:41:24;;;;;;;;;;;;;;;11.71;100.00;102685.06;4936701;28;20419;-76
2023/04/09 09:43:52;;;;;;;36.47;21.95;;;;;;;11.72;100.00;102681.59;4913263;28;19934;-77
2023/04/09 09:46:20;;;;;;;31.75;21.83;;;;;;;11.67;100.00;102688.47;4958542;28;20046;-77
2023/04/09 09:48:48;;;;;;;29.27;21.38;;;;;;;11.75;100.00;102683.41;4919311;28;20047;-76
2023/04/09 09:51:17;;;;;;;30.75;21.80;;;;;;;11.87;100.00;102686.38;4964657;28;20054;-78
2023/04/09 09:53:48;;;;;;;33.70;23.85;;;;;;;11.88;100.00;102673.22;4953739;28;20429;-77
2023/04/09 09:56:23;;;;;;;33.70;21.73;;;;;;;11.86;100.00;102685.47;4923230;28;20051;-79
2023/04/09 09:58:58;;;;;;;36.22;26.80;;;;;;;11.84;100.00;102673.97;4934277;28;20059;-79
2023/04/09 10:01:26;;;;;;;37.58;24.83;;;;;;;11.89;100.00;102679.41;4938746;28;20047;-78
2023/04/09 10:03:58;;;;;;;37.03;24.67;;;;;;;11.79;100.00;102667.66;4932665;28;20845;-78
2023/04/09 10:06:26;;;;;;;29.90;21.90;;;;;;;11.70;100.00;102677.97;4966128;28;20054;-78
2023/04/09 10:08:57;;;;;;;26.35;18.80;;;;;;;11.69;100.00;102671.81;4944172;28;20068;-78
2023/04/09 10:11:24;;;;;;;27.77;20.05;;;;;;;11.75;100.00;102672.84;4952150;28;20082;-78
2023/04/09 10:13:57;;;;;;;25.52;19.27;;;;;;;11.85;100.00;102659.94;4942077;28;20399;-78
2023/04/09 10:16:26;;;;;;;27.35;19.27;;;;;;;11.91;100.00;102656.59;4911337;28;20523;-78
2023/04/09 10:18:58;;;;;;;25.10;18.60;;;;;;;11.92;100.00;102658.38;4953786;28;20047;-78
2023/04/09 10:21:52;;;;;;;25.07;18.03;;;;;;;12.05;100.00;102665.75;4937439;29;20055;-78
2023/04/09 10:24:20;;;;;;;27.33;19.67;;;;;;;12.13;100.00;102658.03;4952217;28;20404;-78
2023/04/09 10:26:48;;;;;;;31.80;20.23;;;;;;;12.11;100.00;102665.03;4961918;28;20078;-78
2023/04/09 10:29:27;;;;;;;25.60;18.70;;;;;;;12.07;100.00;102648.19;4929394;28;20055;-78
2023/04/09 10:32:05;;;;;;;30.42;21.65;;;;;;;12.18;100.00;102655.53;4901230;28;20060;-79
2023/04/09 10:34:42;;;;;;;27.25;20.67;;;;;;;12.21;100.00;102645.00;4917082;28;20051;-80
2023/04/09 10:37:21;;;;;;;26.17;19.35;;;;;;;12.15;100.00;102658.06;4954353;28;20432;-78
2023/04/09 10:39:51;;;;;;;27.10;20.60;;;;;;;12.01;100.00;102652.44;4955141;28;20070;-78
2023/04/09 10:42:49;;;;;;;27.25;19.60;;;;;;;11.99;100.00;102640.94;4946392;28;20498;-79
2023/04/09 10:45:18;;;;;;;28.08;19.50;;;;;;;12.07;100.00;102642.91;4925518;28;20047;-78
2023/04/09 10:47:52;;;;;;;25.83;19.58;;;;;;;12.13;100.00;102643.94;4922290;28;20050;-77
2023/04/09 10:50:20;;;;;;;30.35;19.60;;;;;;;12.18;100.00;102645.84;4933818;28;20059;-78
2023/04/09 10:52:59;;;;;;;25.13;17.90;;;;;;;12.23;100.00;102632.72;4941167;28;20048;-77
2023/04/09 10:55:30;;;;;;;23.17;17.13;;;;;;;12.41;100.00;102643.75;4950529;28;20047;-78
2023/04/09 10:57:57;;;;;;;24.77;18.13;;;;;;;12.61;100.00;102633.66;4962958;28;20046;-78
2023/04/09 11:00:25;;;;;;;24.85;16.77;;;;;;;12.78;100.00;102628.75;4938897;28;20534;-78
2023/04/09 11:03:01;;;;;;;24.75;17.70;;;;;;;12.87;100.00;102614.81;4920664;28;20042;-77
2023/04/09 11:05:34;;;;;;;23.90;18.05;;;;;;;12.94;100.00;102616.75;4950759;28;20051;-78
2023/04/09 11:08:13;;;;;;;23.98;17.92;;;;;;;13.05;100.00;102611.69;4927637;28;20055;-77
2023/04/09 11:10:43;;;;;;;28.48;19.05;;;;;;;13.19;100.00;102610.22;4962737;28;20055;-77
2023/04/09 11:13:12;;;;;;;;;;;;;;;13.20;100.00;102606.72;4950294;28;20047;-78
2023/04/09 11:15:39;;;;;;;22.42;17.13;;;;;;;13.15;100.00;102603.06;4934196;28;20382;-77
2023/04/09 11:18:10;;;;;;;23.42;17.90;;;;;;;13.30;100.00;102606.91;4922481;28;20051;-78
2023/04/09 11:20:39;;;;;;;25.08;18.95;;;;;;;13.39;100.00;102600.06;4951463;28;20852;-78
2023/04/09 11:23:06;;;;;;;24.10;17.75;;;;;;;13.43;100.00;102596.59;4936296;29;20047;-78